createdAt,value
2022-09-14T07:11:27.431Z,99852.28
2022-09-14T07:14:32.330Z,99853.03
2022-09-14T07:17:38.431Z,99794.25
2022-09-14T07:20:41.110Z,99868.44
2022-09-14T07:23:44.995Z,99863.53
2022-09-14T07:26:49.115Z,99862.75
2022-09-14T07:29:51.752Z,99845.62
2022-09-14T07:32:54.739Z,99865.84
2022-09-14T07:36:07.268Z,99859.38
2022-09-14T07:39:14.336Z,99843.44
2022-09-14T07:42:16.818Z,99853.19
2022-09-14T07:45:19.942Z,99815.22
2022-09-14T07:48:22.667Z,99842.09
2022-09-14T07:51:26.431Z,99844.69
2022-09-14T07:54:28.922Z,99845.00
2022-09-14T07:57:54.517Z,99789.28
2022-09-14T08:01:01.964Z,99838.03
2022-09-14T08:04:06.006Z,99844.09
2022-09-14T08:07:11.367Z,99838.47
2022-09-14T08:10:16.248Z,99817.94
2022-09-14T08:13:24.626Z,99823.53
2022-09-14T08:16:29.582Z,99821.09
2022-09-14T08:19:33.180Z,99816.44
2022-09-14T08:22:41.758Z,99812.00
2022-09-14T08:25:45.840Z,99816.94
2022-09-14T08:28:49.671Z,99826.84
2022-09-14T08:31:54.933Z,99801.25
2022-09-14T08:35:00.780Z,99816.09
2022-09-14T08:38:03.527Z,99814.50
2022-09-14T08:41:30.739Z,99797.31
2022-09-14T08:44:51.260Z,99761.03
2022-09-14T08:47:53.732Z,99805.06
2022-09-14T08:50:58.787Z,99757.28
2022-09-14T08:54:16.347Z,99783.50
2022-09-14T08:57:22.198Z,99800.97
2022-09-14T09:00:27.258Z,99807.50
2022-09-14T09:04:02.207Z,99811.09
2022-09-14T09:07:32.846Z,99798.22
2022-09-14T09:10:35.447Z,99797.38
2022-09-14T09:13:39.218Z,99780.97
2022-09-14T09:16:41.449Z,99777.12
2022-09-14T09:20:09.150Z,99802.44
2022-09-14T09:23:24.254Z,99766.19
2022-09-14T09:26:29.243Z,99814.12
2022-09-14T09:29:31.534Z,99818.84
2022-09-14T09:32:45.833Z,99820.50
2022-09-14T09:35:50.510Z,99799.62
2022-09-14T09:38:54.173Z,99832.78
2022-09-14T09:42:20.695Z,99845.06
2022-09-14T09:45:23.144Z,99803.75
2022-09-14T09:48:43.671Z,99807.75
2022-09-14T09:51:46.274Z,99825.69
2022-09-14T09:54:53.527Z,99853.19
2022-09-14T09:58:26.051Z,99816.63
2022-09-14T10:01:33.330Z,99790.38
2022-09-14T10:04:38.601Z,99855.50
2022-09-14T10:07:50.043Z,99794.16
2022-09-14T10:10:54.286Z,99844.62
2022-09-14T10:14:06.209Z,99841.34
2022-09-14T10:17:23.718Z,99845.09
2022-09-14T10:20:27.429Z,99838.31
2022-09-14T10:23:33.611Z,99832.81
2022-09-14T10:26:42.336Z,99782.09
2022-09-14T10:29:45.099Z,99785.97
2022-09-14T10:32:56.469Z,99826.00
2022-09-14T10:36:23.407Z,99812.53
2022-09-14T10:40:22.955Z,99816.81
2022-09-14T10:43:35.400Z,99810.19
2022-09-14T10:46:44.439Z,99799.94
2022-09-14T10:50:19.724Z,99811.84
2022-09-14T10:53:45.778Z,99797.50
2022-09-14T10:57:17.616Z,99807.69
2022-09-14T11:00:20.378Z,99796.50
2022-09-14T11:03:56.419Z,99759.38
2022-09-14T11:07:07.989Z,99757.09
2022-09-14T11:10:27.763Z,99792.94
2022-09-14T11:14:11.304Z,99810.47
2022-09-14T11:17:25.702Z,99805.88
2022-09-14T11:20:48.647Z,99794.87
2022-09-14T11:23:54.738Z,99792.50
2022-09-14T11:27:10.558Z,99776.62
2022-09-14T11:30:35.721Z,99785.88
2022-09-14T11:33:58.317Z,99785.78
2022-09-14T11:37:13.146Z,99784.22
2022-09-14T11:40:18.765Z,99778.63
2022-09-14T11:43:46.502Z,99784.22
2022-09-14T11:46:52.274Z,99770.38
2022-09-14T11:50:00.805Z,99771.84
2022-09-14T11:53:11.976Z,99775.56
2022-09-14T11:56:26.923Z,99755.09
2022-09-14T11:59:41.815Z,99766.06
2022-09-14T12:02:49.286Z,99760.88
2022-09-14T12:05:51.979Z,99728.31
2022-09-14T12:08:54.387Z,99766.41
2022-09-14T12:12:03.363Z,99754.97
2022-09-14T12:50:32.823Z,99727.97
2022-09-14T12:53:35.635Z,99671.53
2022-09-14T12:56:47.426Z,99703.22
2022-09-14T13:00:12.087Z,99687.25
2022-09-14T13:03:32.843Z,99646.56
2022-09-14T13:06:42.519Z,99675.47
2022-09-14T13:09:54.005Z,99667.50
2022-09-14T13:12:59.148Z,99634.84
2022-09-14T13:16:06.253Z,99630.34
2022-09-14T13:19:25.706Z,99663.25
2022-09-14T13:22:31.779Z,99675.91
2022-09-14T13:25:37.370Z,99663.22
2022-09-14T13:28:44.207Z,99646.31
2022-09-14T13:31:47.088Z,99677.94
2022-09-14T13:34:50.417Z,99678.03
2022-09-14T13:37:52.862Z,99685.41
2022-09-14T13:41:12.538Z,99683.03
2022-09-14T13:44:15.938Z,99643.53
2022-09-14T13:47:22.547Z,99647.56
2022-09-14T13:50:27.733Z,99628.16
2022-09-14T13:53:48.442Z,99665.75
2022-09-14T13:57:14.842Z,99676.13
2022-09-14T14:00:26.616Z,99683.88
2022-09-14T14:03:48.109Z,99656.25
2022-09-14T14:07:08.565Z,99598.09
2022-09-14T14:10:25.448Z,99654.28
2022-09-14T14:13:34.398Z,99643.19
2022-09-14T14:16:38.674Z,99639.59
2022-09-14T14:19:41.507Z,99595.53
2022-09-14T14:22:58.181Z,99622.19
2022-09-14T14:26:08.850Z,99627.84
2022-09-14T14:29:16.343Z,99629.88
2022-09-14T14:32:18.970Z,99551.81
2022-09-14T14:35:24.772Z,99620.25
2022-09-14T14:38:30.374Z,99606.81
2022-09-14T14:41:35.589Z,99542.44
2022-09-14T14:44:38.215Z,99588.66
2022-09-14T14:47:43.349Z,99555.75
2022-09-14T14:50:58.706Z,99546.19
2022-09-14T14:54:01.719Z,99591.38
2022-09-14T14:57:08.614Z,99598.09
2022-09-14T15:00:22.496Z,99604.03
2022-09-14T15:03:25.346Z,99607.72
2022-09-14T15:06:30.526Z,99602.72
2022-09-14T15:09:35.416Z,99597.13
2022-09-14T15:12:38.186Z,99599.25
2022-09-14T15:15:43.169Z,99586.72
2022-09-14T15:18:47.852Z,99570.62
2022-09-14T15:21:50.381Z,99570.44
2022-09-14T15:24:53.289Z,99515.19
2022-09-14T15:27:56.128Z,99558.09
2022-09-14T15:34:10.073Z,99516.69
2022-09-14T15:37:15.405Z,99515.28
2022-09-14T15:40:20.251Z,99517.09
2022-09-14T15:43:23.607Z,99542.53
2022-09-14T15:46:33.491Z,99543.75
2022-09-14T15:49:37.299Z,99536.75
2022-09-14T15:52:42.671Z,99535.22
2022-09-14T15:55:45.774Z,99526.66
2022-09-14T15:58:48.396Z,99524.22
2022-09-14T16:01:56.707Z,99523.81
2022-09-14T16:05:25.476Z,99557.00
2022-09-14T16:08:27.783Z,99560.84
2022-09-14T16:11:31.207Z,99561.03
2022-09-14T16:14:33.754Z,99547.47
2022-09-14T16:17:36.398Z,99590.50
2022-09-14T16:20:38.754Z,99551.53
2022-09-14T16:23:43.374Z,99554.34
2022-09-14T16:26:45.749Z,99562.94
2022-09-14T16:29:48.566Z,99567.47
2022-09-14T16:32:53.743Z,99532.00
2022-09-14T16:36:27.048Z,99561.19
2022-09-14T16:39:29.955Z,99563.84
2022-09-14T16:42:32.467Z,99556.47
2022-09-14T16:45:34.956Z,99556.41
2022-09-14T16:48:42.217Z,99537.66
2022-09-14T16:51:44.770Z,99545.75
2022-09-14T16:54:47.510Z,99556.63
2022-09-14T16:57:50.078Z,99544.28
2022-09-14T17:00:52.650Z,99517.03
2022-09-14T17:03:56.142Z,99543.91
2022-09-14T17:06:58.814Z,99547.75
2022-09-14T17:10:01.102Z,99540.75
2022-09-14T17:13:03.712Z,99552.50
2022-09-14T17:16:08.449Z,99533.81
2022-09-14T17:19:11.493Z,99520.78
2022-09-14T17:22:14.332Z,99520.91
2022-09-14T17:25:17.180Z,99501.44
2022-09-14T17:28:25.656Z,99486.75
2022-09-14T17:31:30.574Z,99461.59
2022-09-14T17:34:33.003Z,99482.59
2022-09-14T17:37:39.599Z,99512.87
2022-09-14T17:40:42.253Z,99495.50
2022-09-14T17:43:53.212Z,99515.78
2022-09-14T17:47:04.676Z,99501.06
2022-09-14T17:50:10.477Z,99433.97
2022-09-14T17:53:18.343Z,99484.25
2022-09-14T17:56:24.586Z,99469.56
2022-09-14T17:59:34.659Z,99476.47
2022-09-14T18:03:04.971Z,99476.75
2022-09-14T18:06:09.242Z,99487.16
2022-09-14T18:09:21.714Z,99439.34
2022-09-14T18:12:27.720Z,99494.34
2022-09-14T18:15:32.993Z,99453.56
2022-09-14T18:18:36.844Z,99488.75
2022-09-14T18:21:48.970Z,99492.06
2022-09-14T18:24:54.306Z,99466.09
2022-09-14T18:27:56.744Z,99492.53
2022-09-14T18:31:03.453Z,99519.03
2022-09-14T18:34:05.916Z,99533.56
2022-09-14T18:37:08.544Z,99516.09
2022-09-14T18:40:11.059Z,99498.09
2022-09-14T18:43:13.821Z,99445.81
2022-09-14T18:46:16.331Z,99473.06
2022-09-14T18:49:24.062Z,99497.87
2022-09-14T18:52:26.393Z,99433.31
2022-09-14T18:55:29.025Z,99480.13
2022-09-14T18:58:38.944Z,99466.81
2022-09-14T19:01:44.344Z,99484.50
2022-09-14T19:04:47.415Z,99486.16
2022-09-14T19:07:50.054Z,99484.00
2022-09-14T19:10:52.462Z,99471.19
2022-09-14T19:14:06.318Z,99485.66
2022-09-14T19:17:16.181Z,99479.25
2022-09-14T19:20:22.230Z,99500.47
2022-09-14T19:23:24.690Z,99492.53
2022-09-14T19:26:29.652Z,99478.91
2022-09-14T19:29:32.852Z,99475.37
2022-09-14T19:32:38.000Z,99467.69
2022-09-14T19:35:40.751Z,99456.78
2022-09-14T19:38:43.439Z,99417.31
2022-09-14T19:41:45.793Z,99474.81
2022-09-14T19:44:51.490Z,99474.56
2022-09-14T19:47:56.711Z,99465.53
2022-09-14T19:54:43.214Z,99431.88
2022-09-14T19:58:01.766Z,99434.88
2022-09-14T20:01:05.988Z,99475.41
2022-09-14T20:04:11.309Z,99475.41
2022-09-14T20:07:13.674Z,99471.28
2022-09-14T20:10:18.309Z,99486.53
2022-09-14T20:13:20.787Z,99411.06
2022-09-14T20:16:29.084Z,99410.22
2022-09-14T20:19:33.110Z,99429.16
2022-09-14T20:22:37.528Z,99432.44
2022-09-14T20:25:39.901Z,99377.72
2022-09-14T20:28:45.641Z,99413.00
2022-09-14T20:31:57.529Z,99382.06
2022-09-14T20:35:00.242Z,99375.00
2022-09-14T20:38:04.826Z,99435.38
2022-09-14T20:41:08.114Z,99373.91
2022-09-14T20:44:13.877Z,99409.28
2022-09-14T20:47:16.563Z,99428.56
2022-09-14T20:50:23.646Z,99434.53
2022-09-14T20:53:36.230Z,99435.38
2022-09-14T20:56:38.892Z,99401.69
2022-09-14T20:59:44.754Z,99434.88
2022-09-14T21:02:51.818Z,99440.34
2022-09-14T21:05:57.406Z,99439.25
2022-09-14T21:09:00.983Z,99433.22
2022-09-14T21:12:03.799Z,99404.19
2022-09-14T21:15:10.771Z,99395.12
2022-09-14T21:18:16.575Z,99388.03
2022-09-14T21:21:35.876Z,99386.88
2022-09-14T21:24:39.523Z,99428.31
2022-09-14T21:27:41.891Z,99451.22
2022-09-14T21:30:45.570Z,99457.50
2022-09-14T21:33:53.143Z,99462.97
2022-09-14T21:36:55.871Z,99423.97
2022-09-14T21:39:58.289Z,99422.91
2022-09-14T21:43:01.052Z,99432.84
2022-09-14T21:46:06.778Z,99423.91
2022-09-14T21:49:17.474Z,99427.91
2022-09-14T21:52:19.826Z,99368.87
2022-09-14T21:55:22.438Z,99428.13
2022-09-14T21:58:24.821Z,99374.22
2022-09-14T22:01:27.968Z,99379.12
2022-09-14T22:04:30.602Z,99431.88
2022-09-14T22:07:33.298Z,99419.41
2022-09-14T22:14:13.590Z,99428.13
2022-09-14T22:17:34.086Z,99418.59
2022-09-14T22:20:36.407Z,99418.84
2022-09-14T22:23:41.209Z,99418.78
2022-09-14T22:26:43.866Z,99413.87
2022-09-14T22:29:46.521Z,99374.25
2022-09-14T22:32:49.001Z,99410.62
2022-09-14T22:35:53.038Z,99400.28
2022-09-14T22:38:56.810Z,99417.19
2022-09-14T22:41:59.526Z,99424.34
2022-09-14T22:45:01.888Z,99415.88
2022-09-14T22:48:04.574Z,99423.19
2022-09-14T22:51:08.168Z,99403.59
2022-09-14T22:54:13.806Z,99422.91
2022-09-14T22:57:16.158Z,99425.34
2022-09-14T23:00:18.869Z,99421.75
2022-09-14T23:03:21.236Z,99377.19
2022-09-14T23:06:29.942Z,99412.44
2022-09-14T23:09:33.207Z,99436.47
2022-09-14T23:12:39.912Z,99437.78
2022-09-14T23:15:49.639Z,99421.19
2022-09-14T23:18:57.053Z,99382.09
2022-09-14T23:22:01.129Z,99457.75
2022-09-14T23:25:04.025Z,99425.09
2022-09-14T23:28:13.272Z,99403.66
2022-09-14T23:31:21.072Z,99403.66
2022-09-14T23:34:23.494Z,99432.38
2022-09-14T23:37:26.126Z,99437.59
2022-09-14T23:40:28.550Z,99412.81
2022-09-14T23:43:31.310Z,99397.59
2022-09-14T23:46:33.951Z,99406.19
2022-09-14T23:49:36.827Z,99414.91
2022-09-14T23:52:40.299Z,99394.69
2022-09-14T23:55:56.784Z,99392.47
2022-09-14T23:59:03.481Z,99382.59
